RJSC/GAJ METAR and TAF weather

Enter ICAO airport designator
Station Type Date Time Source
RJSC METAR 2020/01/28 10:00 UTC NOAA

RJSC 281000Z 11005KT 070V150 9999 -RA FEW010 SCT030 BKN040 05/02 Q1018


Station Type Date Time Source
RJSC Decoded METAR 2020/01/28 10:00 UTC NOAA

Yamagata Airport, Japan (RJSC) 38-25N 140-22E 108M
Jan 28, 2020 - 05:00 AM EST / 2020.01.28 1000 UTC
Wind: from the ESE (110 degrees) at 6 MPH (5 KT) (direction variable):0
Visibility: greater than 7 mile(s):0
Sky conditions: mostly cloudy
Weather: light rain
Temperature: 41 F (5 C)
Dew Point: 35 F (2 C)
Relative Humidity: 80%
Pressure (altimeter): 30.06 in. Hg (1018 hPa)
ob: RJSC 281000Z 11005KT 070V150 9999 -RA FEW010 SCT030 BKN040 05/02 Q1018
cycle: 10

Station Type Date Time Source
RJSC TAF UTC NOAA

Error!

Example: see airport list